sensor_id;sensor_type;location;lat;lon;timestamp;pressure;altitude;pressure_sealevel;temperature
8533;BMP280;4304;53.876;10.662;2024-03-17T00:00:13;102142.22;;;4.94
8533;BMP280;4304;53.876;10.662;2024-03-17T00:02:41;102139.59;;;4.97
8533;BMP280;4304;53.876;10.662;2024-03-17T00:05:07;102151.59;;;4.96
8533;BMP280;4304;53.876;10.662;2024-03-17T00:07:32;102148.16;;;4.97
8533;BMP280;4304;53.876;10.662;2024-03-17T00:09:57;102157.78;;;4.89
8533;BMP280;4304;53.876;10.662;2024-03-17T00:12:23;102160.25;;;4.95
8533;BMP280;4304;53.876;10.662;2024-03-17T00:14:48;102163.53;;;5.02
8533;BMP280;4304;53.876;10.662;2024-03-17T00:17:13;102165.22;;;5.01
8533;BMP280;4304;53.876;10.662;2024-03-17T00:19:40;102173.22;;;4.91
8533;BMP280;4304;53.876;10.662;2024-03-17T00:22:05;102172.34;;;4.92
8533;BMP280;4304;53.876;10.662;2024-03-17T00:24:33;102191.22;;;4.92
8533;BMP280;4304;53.876;10.662;2024-03-17T00:26:59;102176.63;;;4.91
8533;BMP280;4304;53.876;10.662;2024-03-17T00:29:25;102186.09;;;4.91
8533;BMP280;4304;53.876;10.662;2024-03-17T00:31:51;102176.69;;;4.90
8533;BMP280;4304;53.876;10.662;2024-03-17T00:34:16;102168.16;;;4.86
8533;BMP280;4304;53.876;10.662;2024-03-17T00:36:41;102163.00;;;4.86
8533;BMP280;4304;53.876;10.662;2024-03-17T00:39:07;102155.41;;;4.82
8533;BMP280;4304;53.876;10.662;2024-03-17T00:41:32;102174.22;;;4.84
8533;BMP280;4304;53.876;10.662;2024-03-17T00:43:57;102182.81;;;4.83
8533;BMP280;4304;53.876;10.662;2024-03-17T00:46:25;102180.19;;;4.86
8533;BMP280;4304;53.876;10.662;2024-03-17T00:48:50;102183.78;;;4.79
8533;BMP280;4304;53.876;10.662;2024-03-17T00:51:16;102187.25;;;4.76
8533;BMP280;4304;53.876;10.662;2024-03-17T00:53:41;102180.44;;;4.75
8533;BMP280;4304;53.876;10.662;2024-03-17T00:56:07;102183.91;;;4.73
8533;BMP280;4304;53.876;10.662;2024-03-17T00:58:32;102191.56;;;4.76
8533;BMP280;4304;53.876;10.662;2024-03-17T01:00:58;102184.09;;;4.64
8533;BMP280;4304;53.876;10.662;2024-03-17T01:03:23;102190.88;;;4.68
8533;BMP280;4304;53.876;10.662;2024-03-17T01:05:48;102184.19;;;4.60
8533;BMP280;4304;53.876;10.662;2024-03-17T01:08:17;102178.25;;;4.56
8533;BMP280;4304;53.876;10.662;2024-03-17T01:10:44;102183.41;;;4.56
8533;BMP280;4304;53.876;10.662;2024-03-17T01:13:10;102185.25;;;4.50
8533;BMP280;4304;53.876;10.662;2024-03-17T01:15:36;102180.94;;;4.50
8533;BMP280;4304;53.876;10.662;2024-03-17T01:18:02;102196.53;;;4.44
8533;BMP280;4304;53.876;10.662;2024-03-17T01:20:29;102187.94;;;4.44
8533;BMP280;4304;53.876;10.662;2024-03-17T01:22:55;102190.56;;;4.42
8533;BMP280;4304;53.876;10.662;2024-03-17T01:25:20;102184.56;;;4.40
8533;BMP280;4304;53.876;10.662;2024-03-17T01:27:45;102198.41;;;4.35
8533;BMP280;4304;53.876;10.662;2024-03-17T01:30:10;102182.97;;;4.35
8533;BMP280;4304;53.876;10.662;2024-03-17T01:32:36;102183.81;;;4.35
8533;BMP280;4304;53.876;10.662;2024-03-17T01:35:01;102186.53;;;4.29
8533;BMP280;4304;53.876;10.662;2024-03-17T01:37:27;102182.22;;;4.30
8533;BMP280;4304;53.876;10.662;2024-03-17T01:39:52;102186.53;;;4.29
8533;BMP280;4304;53.876;10.662;2024-03-17T01:42:17;102188.06;;;4.38
8533;BMP280;4304;53.876;10.662;2024-03-17T01:44:43;102189.13;;;4.28
8533;BMP280;4304;53.876;10.662;2024-03-17T01:47:08;102193.47;;;4.24
8533;BMP280;4304;53.876;10.662;2024-03-17T01:49:34;102195.09;;;4.28
8533;BMP280;4304;53.876;10.662;2024-03-17T01:52:00;102197.75;;;4.24
8533;BMP280;4304;53.876;10.662;2024-03-17T01:54:25;102188.28;;;4.27
8533;BMP280;4304;53.876;10.662;2024-03-17T01:56:51;102192.63;;;4.24
8533;BMP280;4304;53.876;10.662;2024-03-17T01:59:16;102198.66;;;4.23
8533;BMP280;4304;53.876;10.662;2024-03-17T02:01:41;102205.63;;;4.18
8533;BMP280;4304;53.876;10.662;2024-03-17T02:04:07;102211.56;;;4.20
8533;BMP280;4304;53.876;10.662;2024-03-17T02:06:32;102220.25;;;4.15
8533;BMP280;4304;53.876;10.662;2024-03-17T02:08:58;102212.63;;;4.10
8533;BMP280;4304;53.876;10.662;2024-03-17T02:13:52;102213.75;;;3.93
8533;BMP280;4304;53.876;10.662;2024-03-17T02:16:18;102214.75;;;3.86
8533;BMP280;4304;53.876;10.662;2024-03-17T02:18:44;102205.44;;;3.79
8533;BMP280;4304;53.876;10.662;2024-03-17T02:21:09;102215.72;;;3.81
8533;BMP280;4304;53.876;10.662;2024-03-17T02:23:35;102214.22;;;3.68
8533;BMP280;4304;53.876;10.662;2024-03-17T02:26:00;102213.41;;;3.64
8533;BMP280;4304;53.876;10.662;2024-03-17T02:28:25;102214.22;;;3.66
8533;BMP280;4304;53.876;10.662;2024-03-17T02:30:51;102210.06;;;3.59
8533;BMP280;4304;53.876;10.662;2024-03-17T02:33:16;102208.38;;;3.57
8533;BMP280;4304;53.876;10.662;2024-03-17T02:35:41;102203.44;;;3.45
8533;BMP280;4304;53.876;10.662;2024-03-17T02:38:07;102223.19;;;3.41
8533;BMP280;4304;53.876;10.662;2024-03-17T02:40:34;102208.81;;;3.30
8533;BMP280;4304;53.876;10.662;2024-03-17T02:42:59;102214.00;;;3.27
8533;BMP280;4304;53.876;10.662;2024-03-17T02:45:25;102215.78;;;3.21
8533;BMP280;4304;53.876;10.662;2024-03-17T02:47:50;102198.66;;;3.23
8533;BMP280;4304;53.876;10.662;2024-03-17T02:50:16;102205.66;;;3.13
8533;BMP280;4304;53.876;10.662;2024-03-17T02:52:41;102202.16;;;3.16
8533;BMP280;4304;53.876;10.662;2024-03-17T02:55:06;102203.09;;;3.12
8533;BMP280;4304;53.876;10.662;2024-03-17T02:57:32;102204.88;;;3.07
8533;BMP280;4304;53.876;10.662;2024-03-17T02:59:58;102210.06;;;3.04
8533;BMP280;4304;53.876;10.662;2024-03-17T03:02:23;102208.31;;;3.04
8533;BMP280;4304;53.876;10.662;2024-03-17T03:04:49;102204.91;;;3.05
8533;BMP280;4304;53.876;10.662;2024-03-17T03:07:15;102216.91;;;3.05
8533;BMP280;4304;53.876;10.662;2024-03-17T03:09:40;102208.34;;;3.03
8533;BMP280;4304;53.876;10.662;2024-03-17T03:12:06;102210.06;;;3.02
8533;BMP280;4304;53.876;10.662;2024-03-17T03:14:32;102210.06;;;3.04
8533;BMP280;4304;53.876;10.662;2024-03-17T03:16:58;102206.72;;;2.97
8533;BMP280;4304;53.876;10.662;2024-03-17T03:19:24;102207.53;;;2.99
8533;BMP280;4304;53.876;10.662;2024-03-17T03:21:49;102206.66;;;3.03
8533;BMP280;4304;53.876;10.662;2024-03-17T03:24:15;102206.78;;;2.93
8533;BMP280;4304;53.876;10.662;2024-03-17T03:26:40;102201.69;;;2.92
8533;BMP280;4304;53.876;10.662;2024-03-17T03:29:06;102224.81;;;2.90
8533;BMP280;4304;53.876;10.662;2024-03-17T03:31:32;102224.88;;;2.84
8533;BMP280;4304;53.876;10.662;2024-03-17T03:33:58;102226.63;;;2.82
8533;BMP280;4304;53.876;10.662;2024-03-17T03:36:26;102219.09;;;2.69
8533;BMP280;4304;53.876;10.662;2024-03-17T03:38:52;102213.06;;;2.70
8533;BMP280;4304;53.876;10.662;2024-03-17T03:41:18;102219.97;;;2.65
8533;BMP280;4304;53.876;10.662;2024-03-17T03:43:43;102215.72;;;2.64
8533;BMP280;4304;53.876;10.662;2024-03-17T03:46:11;102220.84;;;2.65
8533;BMP280;4304;53.876;10.662;2024-03-17T03:48:36;102226.88;;;2.58
8533;BMP280;4304;53.876;10.662;2024-03-17T03:51:05;102230.38;;;2.54
8533;BMP280;4304;53.876;10.662;2024-03-17T03:53:32;102230.47;;;2.46
8533;BMP280;4304;53.876;10.662;2024-03-17T03:55:57;102233.13;;;2.40
8533;BMP280;4304;53.876;10.662;2024-03-17T03:58:23;102233.16;;;2.35
8533;BMP280;4304;53.876;10.662;2024-03-17T04:00:49;102232.44;;;2.23
8533;BMP280;4304;53.876;10.662;2024-03-17T04:03:14;102230.72;;;2.25
8533;BMP280;4304;53.876;10.662;2024-03-17T04:05:40;102243.53;;;2.26
8533;BMP280;4304;53.876;10.662;2024-03-17T04:08:05;102245.22;;;2.24
8533;BMP280;4304;53.876;10.662;2024-03-17T04:10:30;102245.31;;;2.15
8533;BMP280;4304;53.876;10.662;2024-03-17T04:12:56;102247.06;;;2.12
8533;BMP280;4304;53.876;10.662;2024-03-17T04:15:22;102252.22;;;2.11
8533;BMP280;4304;53.876;10.662;2024-03-17T04:17:47;102248.84;;;2.07
8533;BMP280;4304;53.876;10.662;2024-03-17T04:20:13;102241.97;;;2.08
8533;BMP280;4304;53.876;10.662;2024-03-17T04:22:40;102240.19;;;2.15
8533;BMP280;4304;53.876;10.662;2024-03-17T04:25:06;102230.78;;;2.16
8533;BMP280;4304;53.876;10.662;2024-03-17T04:27:31;102224.00;;;2.12
8533;BMP280;4304;53.876;10.662;2024-03-17T04:29:59;102216.34;;;2.08
8533;BMP280;4304;53.876;10.662;2024-03-17T04:32:25;102222.38;;;2.02
8533;BMP280;4304;53.876;10.662;2024-03-17T04:34:53;102229.25;;;2.00
8533;BMP280;4304;53.876;10.662;2024-03-17T04:37:19;102231.84;;;1.96
8533;BMP280;4304;53.876;10.662;2024-03-17T04:39:45;102237.03;;;1.88
8533;BMP280;4304;53.876;10.662;2024-03-17T04:42:15;102239.63;;;1.85
8533;BMP280;4304;53.876;10.662;2024-03-17T04:44:42;102241.41;;;1.76
8533;BMP280;4304;53.876;10.662;2024-03-17T04:47:07;102239.69;;;1.78
8533;BMP280;4304;53.876;10.662;2024-03-17T04:49:41;102247.38;;;1.76
8533;BMP280;4304;53.876;10.662;2024-03-17T04:52:08;102234.63;;;1.70
8533;BMP280;4304;53.876;10.662;2024-03-17T04:54:34;102237.22;;;1.69
8533;BMP280;4304;53.876;10.662;2024-03-17T04:56:59;102240.63;;;1.69
8533;BMP280;4304;53.876;10.662;2024-03-17T04:59:25;102242.38;;;1.65
8533;BMP280;4304;53.876;10.662;2024-03-17T05:01:51;102249.22;;;1.60
8533;BMP280;4304;53.876;10.662;2024-03-17T05:04:17;102260.31;;;1.59
8533;BMP280;4304;53.876;10.662;2024-03-17T05:06:42;102258.63;;;1.59
8533;BMP280;4304;53.876;10.662;2024-03-17T05:09:13;102255.28;;;1.53
8533;BMP280;4304;53.876;10.662;2024-03-17T05:11:42;102261.25;;;1.52
8533;BMP280;4304;53.876;10.662;2024-03-17T05:14:08;102269.00;;;1.46
8533;BMP280;4304;53.876;10.662;2024-03-17T05:16:33;102274.06;;;1.49
8533;BMP280;4304;53.876;10.662;2024-03-17T05:18:59;102263.00;;;1.45
8533;BMP280;4304;53.876;10.662;2024-03-17T05:21:24;102267.28;;;1.40
8533;BMP280;4304;53.876;10.662;2024-03-17T05:23:51;102263.00;;;1.42
8533;BMP280;4304;53.876;10.662;2024-03-17T05:26:16;102251.06;;;1.41
8533;BMP280;4304;53.876;10.662;2024-03-17T05:28:42;102268.06;;;1.53
8533;BMP280;4304;53.876;10.662;2024-03-17T05:31:08;102274.03;;;1.58
8533;BMP280;4304;53.876;10.662;2024-03-17T05:33:34;102264.63;;;1.57
8533;BMP280;4304;53.876;10.662;2024-03-17T05:36:01;102269.75;;;1.58
8533;BMP280;4304;53.876;10.662;2024-03-17T05:38:28;102264.63;;;1.57
8533;BMP280;4304;53.876;10.662;2024-03-17T05:40:58;102272.28;;;1.61
8533;BMP280;4304;53.876;10.662;2024-03-17T05:43:31;102270.56;;;1.60
8533;BMP280;4304;53.876;10.662;2024-03-17T05:46:07;102273.13;;;1.60
8533;BMP280;4304;53.876;10.662;2024-03-17T05:48:37;102281.66;;;1.64
8533;BMP280;4304;53.876;10.662;2024-03-17T05:51:04;102297.84;;;1.68
8533;BMP280;4304;53.876;10.662;2024-03-17T05:53:30;102290.09;;;1.77
8533;BMP280;4304;53.876;10.662;2024-03-17T05:55:58;102296.97;;;1.75
8533;BMP280;4304;53.876;10.662;2024-03-17T05:58:24;102292.69;;;1.74
8533;BMP280;4304;53.876;10.662;2024-03-17T06:00:49;102287.50;;;1.82
8533;BMP280;4304;53.876;10.662;2024-03-17T06:03:14;102284.91;;;1.85
8533;BMP280;4304;53.876;10.662;2024-03-17T06:05:40;102298.53;;;1.88
8533;BMP280;4304;53.876;10.662;2024-03-17T06:08:06;102290.72;;;2.05
8533;BMP280;4304;53.876;10.662;2024-03-17T06:10:35;102300.00;;;2.17
8533;BMP280;4304;53.876;10.662;2024-03-17T06:13:01;102311.03;;;2.30
8533;BMP280;4304;53.876;10.662;2024-03-17T06:15:27;102310.09;;;2.37
8533;BMP280;4304;53.876;10.662;2024-03-17T06:17:53;102327.13;;;2.45
8533;BMP280;4304;53.876;10.662;2024-03-17T06:20:19;102318.28;;;2.71
8533;BMP280;4304;53.876;10.662;2024-03-17T06:22:44;102315.34;;;3.04
8533;BMP280;4304;53.876;10.662;2024-03-17T06:25:11;102315.31;;;3.07
8533;BMP280;4304;53.876;10.662;2024-03-17T06:27:36;102332.13;;;3.32
8533;BMP280;4304;53.876;10.662;2024-03-17T06:30:02;102329.47;;;3.39
8533;BMP280;4304;53.876;10.662;2024-03-17T06:32:30;102342.84;;;3.60
8533;BMP280;4304;53.876;10.662;2024-03-17T06:34:56;102356.22;;;3.83
8533;BMP280;4304;53.876;10.662;2024-03-17T06:37:22;102351.94;;;3.85
8533;BMP280;4304;53.876;10.662;2024-03-17T06:39:48;102360.19;;;4.05
8533;BMP280;4304;53.876;10.662;2024-03-17T06:42:14;102376.72;;;4.43
8533;BMP280;4304;53.876;10.662;2024-03-17T06:44:39;102373.47;;;4.32
8533;BMP280;4304;53.876;10.662;2024-03-17T06:47:05;102391.50;;;4.29
8533;BMP280;4304;53.876;10.662;2024-03-17T06:49:30;102391.44;;;4.33
8533;BMP280;4304;53.876;10.662;2024-03-17T06:51:56;102409.84;;;4.64
8533;BMP280;4304;53.876;10.662;2024-03-17T06:54:21;102405.69;;;5.03
8533;BMP280;4304;53.876;10.662;2024-03-17T06:56:47;102413.91;;;5.21
8533;BMP280;4304;53.876;10.662;2024-03-17T06:59:12;102425.56;;;5.39
8533;BMP280;4304;53.876;10.662;2024-03-17T07:01:37;102428.78;;;5.51
8533;BMP280;4304;53.876;10.662;2024-03-17T07:04:03;102436.03;;;5.75
8533;BMP280;4304;53.876;10.662;2024-03-17T07:06:28;102429.72;;;5.88
8533;BMP280;4304;53.876;10.662;2024-03-17T07:08:54;102427.28;;;6.21
8533;BMP280;4304;53.876;10.662;2024-03-17T07:11:20;102442.31;;;6.38
8533;BMP280;4304;53.876;10.662;2024-03-17T07:13:48;102455.78;;;6.51
8533;BMP280;4304;53.876;10.662;2024-03-17T07:16:16;102457.34;;;6.58
8533;BMP280;4304;53.876;10.662;2024-03-17T07:18:41;102446.75;;;7.01
8533;BMP280;4304;53.876;10.662;2024-03-17T07:21:08;102453.88;;;6.92
8533;BMP280;4304;53.876;10.662;2024-03-17T07:23:36;102459.47;;;7.40
8533;BMP280;4304;53.876;10.662;2024-03-17T07:26:02;102470.22;;;7.25
8533;BMP280;4304;53.876;10.662;2024-03-17T07:28:30;102469.44;;;7.82
8533;BMP280;4304;53.876;10.662;2024-03-17T07:30:58;102479.53;;;6.99
8533;BMP280;4304;53.876;10.662;2024-03-17T07:33:24;102474.97;;;6.76
8533;BMP280;4304;53.876;10.662;2024-03-17T07:35:56;102466.22;;;6.81
8533;BMP280;4304;53.876;10.662;2024-03-17T07:38:23;102464.91;;;7.30
8533;BMP280;4304;53.876;10.662;2024-03-17T07:41:01;102476.91;;;7.34
8533;BMP280;4304;53.876;10.662;2024-03-17T07:43:27;102471.91;;;7.57
8533;BMP280;4304;53.876;10.662;2024-03-17T07:45:59;102476.97;;;7.91
8533;BMP280;4304;53.876;10.662;2024-03-17T07:48:24;102476.41;;;8.10
8533;BMP280;4304;53.876;10.662;2024-03-17T07:51:00;102488.53;;;8.63
8533;BMP280;4304;53.876;10.662;2024-03-17T07:53:27;102490.59;;;7.67
8533;BMP280;4304;53.876;10.662;2024-03-17T07:58:35;102492.91;;;7.46
8533;BMP280;4304;53.876;10.662;2024-03-17T08:01:05;102495.53;;;7.45
8533;BMP280;4304;53.876;10.662;2024-03-17T08:03:34;102494.66;;;7.46
8533;BMP280;4304;53.876;10.662;2024-03-17T08:06:01;102490.44;;;7.42
8533;BMP280;4304;53.876;10.662;2024-03-17T08:08:27;102492.47;;;7.63
8533;BMP280;4304;53.876;10.662;2024-03-17T08:10:53;102486.41;;;7.64
8533;BMP280;4304;53.876;10.662;2024-03-17T08:13:20;102477.53;;;6.77
8533;BMP280;4304;53.876;10.662;2024-03-17T08:15:46;102477.44;;;7.13
8533;BMP280;4304;53.876;10.662;2024-03-17T08:18:12;102476.00;;;7.35
8533;BMP280;4304;53.876;10.662;2024-03-17T08:20:41;102482.22;;;7.58
8533;BMP280;4304;53.876;10.662;2024-03-17T08:23:12;102481.38;;;7.27
8533;BMP280;4304;53.876;10.662;2024-03-17T08:25:37;102479.44;;;7.65
8533;BMP280;4304;53.876;10.662;2024-03-17T08:28:03;102489.47;;;7.76
8533;BMP280;4304;53.876;10.662;2024-03-17T08:30:29;102496.91;;;8.18
8533;BMP280;4304;53.876;10.662;2024-03-17T08:32:58;102498.47;;;7.93
8533;BMP280;4304;53.876;10.662;2024-03-17T08:35:24;102496.47;;;8.58
8533;BMP280;4304;53.876;10.662;2024-03-17T08:37:49;102499.56;;;8.15
8533;BMP280;4304;53.876;10.662;2024-03-17T08:40:17;102513.41;;;7.22
8533;BMP280;4304;53.876;10.662;2024-03-17T08:42:42;102502.31;;;7.17
8533;BMP280;4304;53.876;10.662;2024-03-17T08:45:07;102489.19;;;6.93
8533;BMP280;4304;53.876;10.662;2024-03-17T08:47:33;102488.78;;;6.75
8533;BMP280;4304;53.876;10.662;2024-03-17T08:49:58;102491.22;;;7.14
8533;BMP280;4304;53.876;10.662;2024-03-17T08:52:32;102497.09;;;7.20
8533;BMP280;4304;53.876;10.662;2024-03-17T08:54:58;102486.41;;;7.00
8533;BMP280;4304;53.876;10.662;2024-03-17T08:57:23;102482.56;;;7.46
8533;BMP280;4304;53.876;10.662;2024-03-17T08:59:49;102490.72;;;7.93
8533;BMP280;4304;53.876;10.662;2024-03-17T09:02:14;102500.19;;;7.64
8533;BMP280;4304;53.876;10.662;2024-03-17T09:04:42;102501.50;;;7.47
8533;BMP280;4304;53.876;10.662;2024-03-17T09:07:07;102494.16;;;7.64
8533;BMP280;4304;53.876;10.662;2024-03-17T09:09:33;102490.41;;;7.75
8533;BMP280;4304;53.876;10.662;2024-03-17T09:11:58;102481.59;;;8.09
8533;BMP280;4304;53.876;10.662;2024-03-17T09:14:23;102499.44;;;7.61
8533;BMP280;4304;53.876;10.662;2024-03-17T09:16:49;102505.88;;;7.76
8533;BMP280;4304;53.876;10.662;2024-03-17T09:19:14;102505.78;;;7.79
8533;BMP280;4304;53.876;10.662;2024-03-17T09:21:40;102507.78;;;7.70
8533;BMP280;4304;53.876;10.662;2024-03-17T09:24:06;102497.75;;;6.60
8533;BMP280;4304;53.876;10.662;2024-03-17T09:26:33;102501.00;;;7.34
8533;BMP280;4304;53.876;10.662;2024-03-17T09:28:59;102501.53;;;7.15
8533;BMP280;4304;53.876;10.662;2024-03-17T09:31:25;102489.25;;;6.90
8533;BMP280;4304;53.876;10.662;2024-03-17T09:33:50;102494.84;;;7.07
8533;BMP280;4304;53.876;10.662;2024-03-17T09:36:15;102496.41;;;7.75
8533;BMP280;4304;53.876;10.662;2024-03-17T09:38:41;102497.63;;;6.99
8533;BMP280;4304;53.876;10.662;2024-03-17T09:41:07;102509.19;;;7.50
8533;BMP280;4304;53.876;10.662;2024-03-17T09:43:34;102497.81;;;7.25
8533;BMP280;4304;53.876;10.662;2024-03-17T09:46:02;102505.84;;;7.15
8533;BMP280;4304;53.876;10.662;2024-03-17T09:48:28;102502.22;;;7.22
8533;BMP280;4304;53.876;10.662;2024-03-17T09:51:00;102509.00;;;7.87
8533;BMP280;4304;53.876;10.662;2024-03-17T09:53:33;102485.88;;;7.51
8533;BMP280;4304;53.876;10.662;2024-03-17T09:56:01;102501.06;;;7.93
8533;BMP280;4304;53.876;10.662;2024-03-17T09:58:28;102505.97;;;7.73
8533;BMP280;4304;53.876;10.662;2024-03-17T10:00:53;102507.69;;;8.32
8533;BMP280;4304;53.876;10.662;2024-03-17T10:03:50;102509.59;;;8.25
8533;BMP280;4304;53.876;10.662;2024-03-17T10:06:18;102516.91;;;8.40
8533;BMP280;4304;53.876;10.662;2024-03-17T10:08:52;102502.38;;;7.77
8533;BMP280;4304;53.876;10.662;2024-03-17T10:11:25;102509.28;;;8.63
8533;BMP280;4304;53.876;10.662;2024-03-17T10:16:26;102527.19;;;7.84
8533;BMP280;4304;53.876;10.662;2024-03-17T10:19:13;102526.16;;;7.60
8533;BMP280;4304;53.876;10.662;2024-03-17T10:21:45;102530.91;;;8.06
8533;BMP280;4304;53.876;10.662;2024-03-17T10:24:24;102532.09;;;9.05
8533;BMP280;4304;53.876;10.662;2024-03-17T10:26:56;102538.81;;;8.30
8533;BMP280;4304;53.876;10.662;2024-03-17T10:29:30;102543.97;;;8.02
8533;BMP280;4304;53.876;10.662;2024-03-17T10:34:22;102549.03;;;9.40
8533;BMP280;4304;53.876;10.662;2024-03-17T10:36:52;102532.16;;;10.23
8533;BMP280;4304;53.876;10.662;2024-03-17T10:41:58;102562.63;;;10.41
8533;BMP280;4304;53.876;10.662;2024-03-17T10:44:27;102561.88;;;9.68
8533;BMP280;4304;53.876;10.662;2024-03-17T10:46:55;102562.66;;;8.95
8533;BMP280;4304;53.876;10.662;2024-03-17T10:49:24;102550.59;;;9.44
8533;BMP280;4304;53.876;10.662;2024-03-17T10:51:55;102560.59;;;9.79
8533;BMP280;4304;53.876;10.662;2024-03-17T10:54:24;102549.22;;;10.51
8533;BMP280;4304;53.876;10.662;2024-03-17T10:57:02;102552.00;;;10.25
8533;BMP280;4304;53.876;10.662;2024-03-17T10:59:39;102546.84;;;8.77
8533;BMP280;4304;53.876;10.662;2024-03-17T11:02:23;102544.09;;;8.82
8533;BMP280;4304;53.876;10.662;2024-03-17T11:04:53;102534.03;;;8.46
8533;BMP280;4304;53.876;10.662;2024-03-17T11:07:19;102533.97;;;9.00
8533;BMP280;4304;53.876;10.662;2024-03-17T11:09:46;102541.34;;;9.37
8533;BMP280;4304;53.876;10.662;2024-03-17T11:20:34;102544.34;;;9.00
8533;BMP280;4304;53.876;10.662;2024-03-17T11:23:00;102534.22;;;9.18
8533;BMP280;4304;53.876;10.662;2024-03-17T11:27:52;102535.34;;;9.11
8533;BMP280;4304;53.876;10.662;2024-03-17T11:30:55;102531.88;;;9.83
8533;BMP280;4304;53.876;10.662;2024-03-17T11:46:40;102523.50;;;9.29
8533;BMP280;4304;53.876;10.662;2024-03-17T11:49:05;102527.03;;;9.26
8533;BMP280;4304;53.876;10.662;2024-03-17T11:51:34;102530.44;;;9.52
8533;BMP280;4304;53.876;10.662;2024-03-17T11:54:00;102530.47;;;9.75
8533;BMP280;4304;53.876;10.662;2024-03-17T11:56:26;102532.00;;;10.05
8533;BMP280;4304;53.876;10.662;2024-03-17T11:59:06;102515.09;;;10.60
8533;BMP280;4304;53.876;10.662;2024-03-17T12:01:34;102512.69;;;9.87
8533;BMP280;4304;53.876;10.662;2024-03-17T12:03:59;102524.03;;;10.09
8533;BMP280;4304;53.876;10.662;2024-03-17T12:06:29;102512.06;;;9.58
8533;BMP280;4304;53.876;10.662;2024-03-17T12:08:54;102517.41;;;9.30
8533;BMP280;4304;53.876;10.662;2024-03-17T12:11:32;102509.44;;;9.10
8533;BMP280;4304;53.876;10.662;2024-03-17T12:13:57;102509.50;;;9.08
8533;BMP280;4304;53.876;10.662;2024-03-17T12:16:24;102503.19;;;8.91
8533;BMP280;4304;53.876;10.662;2024-03-17T12:18:49;102508.00;;;8.50
8533;BMP280;4304;53.876;10.662;2024-03-17T12:21:14;102492.13;;;8.32
8533;BMP280;4304;53.876;10.662;2024-03-17T12:23:40;102491.66;;;8.47
8533;BMP280;4304;53.876;10.662;2024-03-17T12:26:12;102495.56;;;8.59
8533;BMP280;4304;53.876;10.662;2024-03-17T12:28:40;102495.03;;;8.50
8533;BMP280;4304;53.876;10.662;2024-03-17T12:31:05;102485.19;;;8.59
8533;BMP280;4304;53.876;10.662;2024-03-17T12:33:31;102495.63;;;8.58
8533;BMP280;4304;53.876;10.662;2024-03-17T12:35:57;102481.75;;;8.05
8533;BMP280;4304;53.876;10.662;2024-03-17T12:38:26;102486.97;;;8.03
8533;BMP280;4304;53.876;10.662;2024-03-17T12:40:51;102489.25;;;7.85
8533;BMP280;4304;53.876;10.662;2024-03-17T12:43:17;102494.22;;;7.91
8533;BMP280;4304;53.876;10.662;2024-03-17T12:45:42;102493.56;;;8.14
8533;BMP280;4304;53.876;10.662;2024-03-17T12:48:13;102484.28;;;8.35
8533;BMP280;4304;53.876;10.662;2024-03-17T12:50:44;102499.31;;;8.51
8533;BMP280;4304;53.876;10.662;2024-03-17T12:53:17;102489.41;;;8.63
8533;BMP280;4304;53.876;10.662;2024-03-17T12:55:53;102485.81;;;8.93
8533;BMP280;4304;53.876;10.662;2024-03-17T12:58:36;102489.50;;;8.60
8533;BMP280;4304;53.876;10.662;2024-03-17T13:01:20;102481.47;;;8.42
8533;BMP280;4304;53.876;10.662;2024-03-17T13:03:46;102469.66;;;8.34
8533;BMP280;4304;53.876;10.662;2024-03-17T13:06:22;102470.88;;;8.22
8533;BMP280;4304;53.876;10.662;2024-03-17T13:08:49;102472.38;;;8.29
8533;BMP280;4304;53.876;10.662;2024-03-17T13:11:15;102455.06;;;8.03
8533;BMP280;4304;53.876;10.662;2024-03-17T13:13:40;102451.97;;;7.90
8533;BMP280;4304;53.876;10.662;2024-03-17T13:16:05;102447.88;;;7.83
8533;BMP280;4304;53.876;10.662;2024-03-17T13:18:32;102454.22;;;8.01
8533;BMP280;4304;53.876;10.662;2024-03-17T13:20:57;102453.22;;;7.77
8533;BMP280;4304;53.876;10.662;2024-03-17T13:23:24;102439.38;;;7.78
8533;BMP280;4304;53.876;10.662;2024-03-17T13:25:49;102449.00;;;8.02
8533;BMP280;4304;53.876;10.662;2024-03-17T13:28:15;102443.66;;;7.79
8533;BMP280;4304;53.876;10.662;2024-03-17T13:30:40;102452.56;;;8.00
8533;BMP280;4304;53.876;10.662;2024-03-17T13:33:07;102438.09;;;7.93
8533;BMP280;4304;53.876;10.662;2024-03-17T13:35:37;102436.63;;;7.83
8533;BMP280;4304;53.876;10.662;2024-03-17T13:38:07;102434.00;;;8.14
8533;BMP280;4304;53.876;10.662;2024-03-17T13:40:33;102429.47;;;8.21
8533;BMP280;4304;53.876;10.662;2024-03-17T13:42:59;102429.25;;;8.00
8533;BMP280;4304;53.876;10.662;2024-03-17T13:45:25;102421.53;;;7.69
8533;BMP280;4304;53.876;10.662;2024-03-17T13:47:59;102430.13;;;7.99
8533;BMP280;4304;53.876;10.662;2024-03-17T13:50:25;102433.56;;;7.99
8533;BMP280;4304;53.876;10.662;2024-03-17T13:52:51;102438.31;;;8.14
8533;BMP280;4304;53.876;10.662;2024-03-17T13:55:19;102430.53;;;7.85
8533;BMP280;4304;53.876;10.662;2024-03-17T13:57:56;102419.47;;;7.80
8533;BMP280;4304;53.876;10.662;2024-03-17T14:00:23;102425.28;;;7.88
8533;BMP280;4304;53.876;10.662;2024-03-17T14:02:50;102436.63;;;8.13
8533;BMP280;4304;53.876;10.662;2024-03-17T14:05:18;102426.41;;;7.80
8533;BMP280;4304;53.876;10.662;2024-03-17T14:07:44;102434.88;;;7.85
8533;BMP280;4304;53.876;10.662;2024-03-17T14:10:10;102438.75;;;7.70
8533;BMP280;4304;53.876;10.662;2024-03-17T14:12:36;102436.94;;;7.74
8533;BMP280;4304;53.876;10.662;2024-03-17T14:15:05;102436.53;;;7.59
8533;BMP280;4304;53.876;10.662;2024-03-17T14:17:31;102428.28;;;7.75
8533;BMP280;4304;53.876;10.662;2024-03-17T14:19:56;102428.94;;;8.08
8533;BMP280;4304;53.876;10.662;2024-03-17T14:22:22;102432.38;;;8.09
8533;BMP280;4304;53.876;10.662;2024-03-17T14:24:47;102427.81;;;8.18
8533;BMP280;4304;53.876;10.662;2024-03-17T14:27:15;102416.63;;;8.18
8533;BMP280;4304;53.876;10.662;2024-03-17T14:29:41;102415.06;;;8.12
8533;BMP280;4304;53.876;10.662;2024-03-17T14:32:06;102406.06;;;7.95
8533;BMP280;4304;53.876;10.662;2024-03-17T14:34:32;102406.88;;;7.97
8533;BMP280;4304;53.876;10.662;2024-03-17T14:37:01;102407.97;;;7.90
8533;BMP280;4304;53.876;10.662;2024-03-17T14:39:27;102409.34;;;7.73
8533;BMP280;4304;53.876;10.662;2024-03-17T14:41:54;102408.09;;;7.86
8533;BMP280;4304;53.876;10.662;2024-03-17T14:44:19;102408.53;;;8.00
8533;BMP280;4304;53.876;10.662;2024-03-17T14:46:45;102398.72;;;7.82
8533;BMP280;4304;53.876;10.662;2024-03-17T14:49:10;102400.66;;;7.75
8533;BMP280;4304;53.876;10.662;2024-03-17T14:51:35;102401.22;;;7.56
8533;BMP280;4304;53.876;10.662;2024-03-17T14:54:00;102393.25;;;7.64
8533;BMP280;4304;53.876;10.662;2024-03-17T14:56:26;102390.91;;;7.55